sensor_id;sensor_type;location;lat;lon;timestamp;pressure;altitude;pressure_sealevel;temperature;humidity
61506;BME280;47366;51.916;4.574;2023-12-20T00:01:29;101783.91;;;6.76;100.00
61506;BME280;47366;51.916;4.574;2023-12-20T00:03:54;101778.66;;;6.71;100.00
61506;BME280;47366;51.916;4.574;2023-12-20T00:06:19;101780.47;;;6.71;100.00
61506;BME280;47366;51.916;4.574;2023-12-20T00:08:44;101791.16;;;6.74;100.00
61506;BME280;47366;51.916;4.574;2023-12-20T00:11:10;101780.44;;;6.72;100.00
61506;BME280;47366;51.916;4.574;2023-12-20T00:13:35;101779.69;;;6.67;100.00
61506;BME280;47366;51.916;4.574;2023-12-20T00:16:01;101774.16;;;6.72;100.00
61506;BME280;47366;51.916;4.574;2023-12-20T00:18:26;101776.84;;;6.72;100.00
61506;BME280;47366;51.916;4.574;2023-12-20T00:20:51;101764.44;;;6.68;100.00
61506;BME280;47366;51.916;4.574;2023-12-20T00:23:16;101770.66;;;6.70;100.00
61506;BME280;47366;51.916;4.574;2023-12-20T00:25:42;101774.16;;;6.72;100.00
61506;BME280;47366;51.916;4.574;2023-12-20T00:28:07;101775.94;;;6.73;100.00
61506;BME280;47366;51.916;4.574;2023-12-20T00:30:33;101771.53;;;6.70;100.00
61506;BME280;47366;51.916;4.574;2023-12-20T00:32:58;101772.41;;;6.71;100.00
61506;BME280;47366;51.916;4.574;2023-12-20T00:35:24;101779.47;;;6.75;100.00
61506;BME280;47366;51.916;4.574;2023-12-20T00:37:49;101779.50;;;6.73;100.00
61506;BME280;47366;51.916;4.574;2023-12-20T00:40:14;101784.91;;;6.72;100.00
61506;BME280;47366;51.916;4.574;2023-12-20T00:42:40;101775.97;;;6.71;100.00
61506;BME280;47366;51.916;4.574;2023-12-20T00:45:05;101780.38;;;6.74;100.00
61506;BME280;47366;51.916;4.574;2023-12-20T00:47:31;101777.53;;;6.78;100.00
61506;BME280;47366;51.916;4.574;2023-12-20T00:49:57;101777.50;;;6.80;100.00
61506;BME280;47366;51.916;4.574;2023-12-20T00:52:23;101773.97;;;6.78;100.00
61506;BME280;47366;51.916;4.574;2023-12-20T00:54:49;101773.09;;;6.77;100.00
61506;BME280;47366;51.916;4.574;2023-12-20T00:57:14;101773.00;;;6.80;100.00
61506;BME280;47366;51.916;4.574;2023-12-20T00:59:40;101753.44;;;6.74;100.00
61506;BME280;47366;51.916;4.574;2023-12-20T01:02:06;101777.41;;;6.83;100.00
61506;BME280;47366;51.916;4.574;2023-12-20T01:04:31;101773.84;;;6.83;100.00
61506;BME280;47366;51.916;4.574;2023-12-20T01:06:58;101789.88;;;6.86;100.00
61506;BME280;47366;51.916;4.574;2023-12-20T01:09:23;101773.84;;;6.83;100.00
61506;BME280;47366;51.916;4.574;2023-12-20T01:11:51;101790.63;;;6.91;100.00
61506;BME280;47366;51.916;4.574;2023-12-20T01:14:17;101786.06;;;6.93;100.00
61506;BME280;47366;51.916;4.574;2023-12-20T01:16:42;101786.94;;;6.93;100.00
61506;BME280;47366;51.916;4.574;2023-12-20T01:19:07;101787.03;;;6.92;100.00
61506;BME280;47366;51.916;4.574;2023-12-20T01:21:32;101767.44;;;6.87;100.00
61506;BME280;47366;51.916;4.574;2023-12-20T01:23:58;101778.22;;;6.87;100.00
61506;BME280;47366;51.916;4.574;2023-12-20T01:26:23;101778.22;;;6.87;100.00
61506;BME280;47366;51.916;4.574;2023-12-20T01:28:49;101782.63;;;6.89;100.00
61506;BME280;47366;51.916;4.574;2023-12-20T01:31:14;101778.97;;;6.90;100.00
61506;BME280;47366;51.916;4.574;2023-12-20T01:33:39;101775.50;;;6.87;100.00
61506;BME280;47366;51.916;4.574;2023-12-20T01:36:05;101776.38;;;6.87;100.00
61506;BME280;47366;51.916;4.574;2023-12-20T01:38:30;101786.94;;;6.93;100.00
61506;BME280;47366;51.916;4.574;2023-12-20T01:40:56;101766.34;;;6.92;100.00
61506;BME280;47366;51.916;4.574;2023-12-20T01:43:21;101767.22;;;6.93;100.00
61506;BME280;47366;51.916;4.574;2023-12-20T01:45:47;101762.81;;;6.90;100.00
61506;BME280;47366;51.916;4.574;2023-12-20T01:48:14;101770.00;;;6.91;100.00
61506;BME280;47366;51.916;4.574;2023-12-20T01:50:41;101753.81;;;6.91;100.00
61506;BME280;47366;51.916;4.574;2023-12-20T01:53:09;101758.22;;;6.94;100.00
61506;BME280;47366;51.916;4.574;2023-12-20T01:55:39;101748.47;;;6.90;100.00
61506;BME280;47366;51.916;4.574;2023-12-20T01:58:05;101779.72;;;6.95;100.00
61506;BME280;47366;51.916;4.574;2023-12-20T02:00:31;101772.63;;;6.93;100.00
61506;BME280;47366;51.916;4.574;2023-12-20T02:02:57;101767.22;;;6.93;100.00
61506;BME280;47366;51.916;4.574;2023-12-20T02:05:25;101767.22;;;6.93;100.00
61506;BME280;47366;51.916;4.574;2023-12-20T02:07:53;101769.88;;;6.94;100.00
61506;BME280;47366;51.916;4.574;2023-12-20T02:10:18;101767.03;;;6.99;100.00
61506;BME280;47366;51.916;4.574;2023-12-20T02:12:43;101755.53;;;6.94;100.00
61506;BME280;47366;51.916;4.574;2023-12-20T02:15:09;101760.78;;;6.98;100.00
61506;BME280;47366;51.916;4.574;2023-12-20T02:17:35;101773.34;;;6.98;100.00
61506;BME280;47366;51.916;4.574;2023-12-20T02:20:01;101743.81;;;6.95;100.00
61506;BME280;47366;51.916;4.574;2023-12-20T02:22:26;101752.69;;;6.98;100.00
61506;BME280;47366;51.916;4.574;2023-12-20T02:24:51;101751.78;;;6.98;100.00
61506;BME280;47366;51.916;4.574;2023-12-20T02:27:19;101758.13;;;6.97;100.00
61506;BME280;47366;51.916;4.574;2023-12-20T02:29:46;101760.78;;;6.98;100.00
61506;BME280;47366;51.916;4.574;2023-12-20T02:32:12;101756.41;;;6.94;100.00
61506;BME280;47366;51.916;4.574;2023-12-20T02:34:38;101754.59;;;6.95;100.00
61506;BME280;47366;51.916;4.574;2023-12-20T02:37:03;101767.13;;;6.96;100.00
61506;BME280;47366;51.916;4.574;2023-12-20T02:39:28;101746.63;;;6.92;100.00
61506;BME280;47366;51.916;4.574;2023-12-20T02:41:54;101749.34;;;6.90;100.00
61506;BME280;47366;51.916;4.574;2023-12-20T02:44:19;101752.75;;;6.97;100.00
61506;BME280;47366;51.916;4.574;2023-12-20T02:46:44;101733.19;;;6.90;100.00
61506;BME280;47366;51.916;4.574;2023-12-20T02:49:10;101759.72;;;7.02;100.00
61506;BME280;47366;51.916;4.574;2023-12-20T02:51:35;101748.22;;;6.97;100.00
61506;BME280;47366;51.916;4.574;2023-12-20T02:54:03;101760.69;;;7.01;100.00
61506;BME280;47366;51.916;4.574;2023-12-20T02:56:28;101748.97;;;7.02;100.00
61506;BME280;47366;51.916;4.574;2023-12-20T02:58:54;101740.09;;;6.99;100.00
61506;BME280;47366;51.916;4.574;2023-12-20T03:01:19;101740.94;;;7.01;100.00
61506;BME280;47366;51.916;4.574;2023-12-20T03:03:45;101736.47;;;7.00;100.00
61506;BME280;47366;51.916;4.574;2023-12-20T03:06:10;101727.47;;;7.01;100.00
61506;BME280;47366;51.916;4.574;2023-12-20T03:08:35;101738.03;;;7.07;100.00
61506;BME280;47366;51.916;4.574;2023-12-20T03:11:00;101738.03;;;7.07;100.00
61506;BME280;47366;51.916;4.574;2023-12-20T03:13:26;101723.84;;;7.02;100.00
61506;BME280;47366;51.916;4.574;2023-12-20T03:15:51;101737.16;;;7.07;100.00
61506;BME280;47366;51.916;4.574;2023-12-20T03:18:16;101731.78;;;7.07;100.00
61506;BME280;47366;51.916;4.574;2023-12-20T03:20:43;101732.53;;;7.10;100.00
61506;BME280;47366;51.916;4.574;2023-12-20T03:23:08;101735.22;;;7.10;100.00
61506;BME280;47366;51.916;4.574;2023-12-20T03:25:34;101747.78;;;7.11;100.00
61506;BME280;47366;51.916;4.574;2023-12-20T03:28:00;101736.28;;;7.06;100.00
61506;BME280;47366;51.916;4.574;2023-12-20T03:30:25;101743.50;;;7.06;100.00
61506;BME280;47366;51.916;4.574;2023-12-20T03:32:51;101749.75;;;7.06;100.00
61506;BME280;47366;51.916;4.574;2023-12-20T03:35:16;101733.78;;;7.00;100.00
61506;BME280;47366;51.916;4.574;2023-12-20T03:37:42;101737.28;;;7.04;100.00
61506;BME280;47366;51.916;4.574;2023-12-20T03:40:07;101741.75;;;7.03;100.00
61506;BME280;47366;51.916;4.574;2023-12-20T03:42:33;101760.47;;;7.08;100.00
61506;BME280;47366;51.916;4.574;2023-12-20T03:44:58;101751.66;;;7.02;100.00
61506;BME280;47366;51.916;4.574;2023-12-20T03:47:23;101746.19;;;7.06;100.00
61506;BME280;47366;51.916;4.574;2023-12-20T03:49:48;101737.34;;;7.00;100.00
61506;BME280;47366;51.916;4.574;2023-12-20T03:52:14;101728.66;;;6.92;100.00
61506;BME280;47366;51.916;4.574;2023-12-20T03:54:40;101734.88;;;6.94;100.00
61506;BME280;47366;51.916;4.574;2023-12-20T03:57:07;101722.31;;;6.93;100.00
61506;BME280;47366;51.916;4.574;2023-12-20T03:59:37;101743.81;;;6.95;100.00
61506;BME280;47366;51.916;4.574;2023-12-20T04:02:02;101729.53;;;6.93;100.00
61506;BME280;47366;51.916;4.574;2023-12-20T04:04:28;101726.94;;;6.90;100.00
61506;BME280;47366;51.916;4.574;2023-12-20T04:06:53;101726.81;;;6.93;100.00
61506;BME280;47366;51.916;4.574;2023-12-20T04:09:18;101722.47;;;6.89;100.00
61506;BME280;47366;51.916;4.574;2023-12-20T04:11:44;101726.97;;;6.88;100.00
61506;BME280;47366;51.916;4.574;2023-12-20T04:14:09;101731.53;;;6.86;100.00
61506;BME280;47366;51.916;4.574;2023-12-20T04:16:35;101735.00;;;6.90;100.00
61506;BME280;47366;51.916;4.574;2023-12-20T04:19:00;101724.28;;;6.88;100.00
61506;BME280;47366;51.916;4.574;2023-12-20T04:21:26;101737.59;;;6.93;100.00
61506;BME280;47366;51.916;4.574;2023-12-20T04:23:51;101720.72;;;6.88;100.00
61506;BME280;47366;51.916;4.574;2023-12-20T04:26:16;101718.81;;;6.91;100.00
61506;BME280;47366;51.916;4.574;2023-12-20T04:28:42;101717.03;;;6.90;100.00
61506;BME280;47366;51.916;4.574;2023-12-20T04:31:08;101722.38;;;6.92;100.00
61506;BME280;47366;51.916;4.574;2023-12-20T04:33:33;101717.72;;;6.97;100.00
61506;BME280;47366;51.916;4.574;2023-12-20T04:35:59;101721.44;;;6.93;100.00
61506;BME280;47366;51.916;4.574;2023-12-20T04:38:25;101725.94;;;6.92;100.00
61506;BME280;47366;51.916;4.574;2023-12-20T04:40:50;101721.44;;;6.93;100.00
61506;BME280;47366;51.916;4.574;2023-12-20T04:43:16;101707.28;;;6.86;100.00
61506;BME280;47366;51.916;4.574;2023-12-20T04:45:41;101685.09;;;6.79;100.00
61506;BME280;47366;51.916;4.574;2023-12-20T04:48:07;101699.13;;;6.89;100.00
61506;BME280;47366;51.916;4.574;2023-12-20T04:50:32;101689.38;;;6.85;100.00
61506;BME280;47366;51.916;4.574;2023-12-20T04:52:58;101700.16;;;6.85;100.00
61506;BME280;47366;51.916;4.574;2023-12-20T04:55:23;101697.56;;;6.82;100.00
61506;BME280;47366;51.916;4.574;2023-12-20T04:57:49;101696.59;;;6.85;100.00
61506;BME280;47366;51.916;4.574;2023-12-20T05:00:14;101683.31;;;6.78;100.00
61506;BME280;47366;51.916;4.574;2023-12-20T05:02:40;101701.91;;;6.86;100.00
61506;BME280;47366;51.916;4.574;2023-12-20T05:05:06;101701.97;;;6.85;100.00
61506;BME280;47366;51.916;4.574;2023-12-20T05:07:32;101709.16;;;6.84;100.00
61506;BME280;47366;51.916;4.574;2023-12-20T05:09:58;101715.44;;;6.85;100.00
61506;BME280;47366;51.916;4.574;2023-12-20T05:12:23;101715.44;;;6.85;100.00
61506;BME280;47366;51.916;4.574;2023-12-20T05:14:49;101705.72;;;6.79;100.00
61506;BME280;47366;51.916;4.574;2023-12-20T05:17:14;101716.41;;;6.82;100.00
61506;BME280;47366;51.916;4.574;2023-12-20T05:19:39;101723.50;;;6.85;100.00
61506;BME280;47366;51.916;4.574;2023-12-20T05:22:04;101725.25;;;6.86;100.00
61506;BME280;47366;51.916;4.574;2023-12-20T05:24:30;101708.47;;;6.77;100.00
61506;BME280;47366;51.916;4.574;2023-12-20T05:26:55;101707.50;;;6.80;100.00
61506;BME280;47366;51.916;4.574;2023-12-20T05:29:20;101721.88;;;6.79;100.00
61506;BME280;47366;51.916;4.574;2023-12-20T05:31:46;101721.72;;;6.84;100.00
61506;BME280;47366;51.916;4.574;2023-12-20T05:34:11;101711.91;;;6.83;100.00
61506;BME280;47366;51.916;4.574;2023-12-20T05:36:37;101712.00;;;6.79;100.00
61506;BME280;47366;51.916;4.574;2023-12-20T05:39:04;101722.56;;;6.86;100.00
61506;BME280;47366;51.916;4.574;2023-12-20T05:41:30;101708.25;;;6.84;100.00
61506;BME280;47366;51.916;4.574;2023-12-20T05:43:55;101706.63;;;6.79;100.00
61506;BME280;47366;51.916;4.574;2023-12-20T05:46:23;101704.75;;;6.81;100.00
61506;BME280;47366;51.916;4.574;2023-12-20T05:48:48;101701.31;;;6.76;100.00
61506;BME280;47366;51.916;4.574;2023-12-20T05:51:13;101702.16;;;6.78;100.00
61506;BME280;47366;51.916;4.574;2023-12-20T05:53:39;101696.66;;;6.81;100.00
61506;BME280;47366;51.916;4.574;2023-12-20T05:56:04;101702.84;;;6.85;100.00
61506;BME280;47366;51.916;4.574;2023-12-20T05:58:31;101700.13;;;6.87;100.00
61506;BME280;47366;51.916;4.574;2023-12-20T06:00:57;101700.13;;;6.87;100.00
61506;BME280;47366;51.916;4.574;2023-12-20T06:03:22;101699.13;;;6.89;100.00
61506;BME280;47366;51.916;4.574;2023-12-20T06:05:48;101702.69;;;6.90;100.00
61506;BME280;47366;51.916;4.574;2023-12-20T06:08:13;101706.22;;;6.92;100.00
61506;BME280;47366;51.916;4.574;2023-12-20T06:10:39;101698.16;;;6.92;100.00
61506;BME280;47366;51.916;4.574;2023-12-20T06:13:05;101695.44;;;6.92;100.00
61506;BME280;47366;51.916;4.574;2023-12-20T06:15:31;101702.47;;;6.96;100.00
61506;BME280;47366;51.916;4.574;2023-12-20T06:17:57;101717.56;;;7.01;100.00
61506;BME280;47366;51.916;4.574;2023-12-20T06:20:22;101706.06;;;6.96;100.00
61506;BME280;47366;51.916;4.574;2023-12-20T06:22:47;101716.69;;;7.01;100.00
61506;BME280;47366;51.916;4.574;2023-12-20T06:25:13;101699.75;;;6.97;100.00
61506;BME280;47366;51.916;4.574;2023-12-20T06:27:38;101719.25;;;7.06;100.00
61506;BME280;47366;51.916;4.574;2023-12-20T06:30:04;101714.63;;;7.09;100.00
61506;BME280;47366;51.916;4.574;2023-12-20T06:32:29;101704.72;;;7.10;100.00
61506;BME280;47366;51.916;4.574;2023-12-20T06:34:55;101703.69;;;7.14;100.00
61506;BME280;47366;51.916;4.574;2023-12-20T06:37:20;101715.34;;;7.14;100.00
61506;BME280;47366;51.916;4.574;2023-12-20T06:39:46;101711.09;;;7.07;100.00
61506;BME280;47366;51.916;4.574;2023-12-20T06:42:12;101702.72;;;7.16;100.00
61506;BME280;47366;51.916;4.574;2023-12-20T06:44:37;101689.34;;;7.13;100.00
61506;BME280;47366;51.916;4.574;2023-12-20T06:47:04;101701.75;;;7.17;100.00
61506;BME280;47366;51.916;4.574;2023-12-20T06:49:29;101704.53;;;7.16;100.00
61506;BME280;47366;51.916;4.574;2023-12-20T06:51:54;101694.63;;;7.16;100.00
61506;BME280;47366;51.916;4.574;2023-12-20T06:54:20;101699.81;;;7.22;100.00
61506;BME280;47366;51.916;4.574;2023-12-20T06:56:45;101696.19;;;7.23;100.00
61506;BME280;47366;51.916;4.574;2023-12-20T06:59:10;101690.78;;;7.23;100.00
61506;BME280;47366;51.916;4.574;2023-12-20T07:01:36;101677.47;;;7.19;100.00
61506;BME280;47366;51.916;4.574;2023-12-20T07:04:01;101676.59;;;7.18;100.00
61506;BME280;47366;51.916;4.574;2023-12-20T07:06:26;101674.75;;;7.20;100.00
61506;BME280;47366;51.916;4.574;2023-12-20T07:08:52;101668.47;;;7.20;100.00
61506;BME280;47366;51.916;4.574;2023-12-20T07:11:17;101677.44;;;7.20;100.00
61506;BME280;47366;51.916;4.574;2023-12-20T07:13:43;101678.34;;;7.19;100.00
61506;BME280;47366;51.916;4.574;2023-12-20T07:16:08;101680.13;;;7.20;100.00
61506;BME280;47366;51.916;4.574;2023-12-20T07:18:33;101675.72;;;7.18;100.00
61506;BME280;47366;51.916;4.574;2023-12-20T07:20:59;101674.75;;;7.20;100.00
61506;BME280;47366;51.916;4.574;2023-12-20T07:23:24;101663.25;;;7.15;100.00
61506;BME280;47366;51.916;4.574;2023-12-20T07:25:50;101661.41;;;7.16;100.00
61506;BME280;47366;51.916;4.574;2023-12-20T07:28:16;101654.31;;;7.13;100.00
61506;BME280;47366;51.916;4.574;2023-12-20T07:30:41;101660.59;;;7.14;100.00
61506;BME280;47366;51.916;4.574;2023-12-20T07:33:06;101656.34;;;7.07;100.00
61506;BME280;47366;51.916;4.574;2023-12-20T07:35:34;101668.00;;;7.07;100.00
61506;BME280;47366;51.916;4.574;2023-12-20T07:37:59;101668.88;;;7.08;100.00
61506;BME280;47366;51.916;4.574;2023-12-20T07:40:24;101672.63;;;7.04;100.00
61506;BME280;47366;51.916;4.574;2023-12-20T07:42:50;101663.84;;;6.97;100.00
61506;BME280;47366;51.916;4.574;2023-12-20T07:45:15;101675.34;;;7.02;100.00
61506;BME280;47366;51.916;4.574;2023-12-20T07:47:40;101685.19;;;7.03;100.00
61506;BME280;47366;51.916;4.574;2023-12-20T07:50:06;101693.25;;;7.03;100.00
61506;BME280;47366;51.916;4.574;2023-12-20T07:52:31;101690.53;;;7.05;100.00
61506;BME280;47366;51.916;4.574;2023-12-20T07:54:57;101700.38;;;7.06;100.00
61506;BME280;47366;51.916;4.574;2023-12-20T07:57:23;101689.66;;;7.04;100.00
61506;BME280;47366;51.916;4.574;2023-12-20T07:59:48;101696.59;;;7.11;100.00
61506;BME280;47366;51.916;4.574;2023-12-20T08:02:14;101693.78;;;7.14;100.00
61506;BME280;47366;51.916;4.574;2023-12-20T08:04:40;101701.75;;;7.17;100.00
61506;BME280;47366;51.916;4.574;2023-12-20T08:07:06;101704.41;;;7.19;100.00
61506;BME280;47366;51.916;4.574;2023-12-20T08:09:31;101702.72;;;7.16;100.00
61506;BME280;47366;51.916;4.574;2023-12-20T08:11:58;101715.88;;;7.26;100.00
61506;BME280;47366;51.916;4.574;2023-12-20T08:14:25;101695.31;;;7.23;100.00
61506;BME280;47366;51.916;4.574;2023-12-20T08:16:50;101687.38;;;7.18;100.00
61506;BME280;47366;51.916;4.574;2023-12-20T08:19:16;101695.16;;;7.28;100.00
61506;BME280;47366;51.916;4.574;2023-12-20T08:21:42;101691.47;;;7.30;100.00
61506;BME280;47366;51.916;4.574;2023-12-20T08:24:07;101688.63;;;7.35;100.00
61506;BME280;47366;51.916;4.574;2023-12-20T08:26:33;101681.53;;;7.32;100.00
61506;BME280;47366;51.916;4.574;2023-12-20T08:28:58;101689.50;;;7.35;100.00
61506;BME280;47366;51.916;4.574;2023-12-20T08:31:24;101709.94;;;7.41;100.00
61506;BME280;47366;51.916;4.574;2023-12-20T08:33:49;101696.47;;;7.41;100.00
61506;BME280;47366;51.916;4.574;2023-12-20T08:36:15;101704.34;;;7.47;100.00
61506;BME280;47366;51.916;4.574;2023-12-20T08:38:43;101697.25;;;7.44;100.00
61506;BME280;47366;51.916;4.574;2023-12-20T08:41:08;101697.16;;;7.48;100.00
61506;BME280;47366;51.916;4.574;2023-12-20T08:43:34;101706.09;;;7.48;100.00
61506;BME280;47366;51.916;4.574;2023-12-20T08:46:01;101705.88;;;7.56;100.00
61506;BME280;47366;51.916;4.574;2023-12-20T08:48:26;101700.47;;;7.56;100.00
61506;BME280;47366;51.916;4.574;2023-12-20T08:50:51;101704.78;;;7.60;100.00
61506;BME280;47366;51.916;4.574;2023-12-20T08:53:20;101699.53;;;7.57;100.00
61506;BME280;47366;51.916;4.574;2023-12-20T08:55:46;101692.44;;;7.54;100.00
61506;BME280;47366;51.916;4.574;2023-12-20T08:58:11;101687.78;;;7.58;100.00
61506;BME280;47366;51.916;4.574;2023-12-20T09:00:37;101690.31;;;7.62;100.00
61506;BME280;47366;51.916;4.574;2023-12-20T09:03:04;101686.75;;;7.62;100.00
61506;BME280;47366;51.916;4.574;2023-12-20T09:05:29;101683.03;;;7.66;100.00
61506;BME280;47366;51.916;4.574;2023-12-20T09:07:55;101684.88;;;7.64;100.00
61506;BME280;47366;51.916;4.574;2023-12-20T09:10:20;101686.53;;;7.68;100.00
61506;BME280;47366;51.916;4.574;2023-12-20T09:12:51;101692.59;;;7.75;100.00
61506;BME280;47366;51.916;4.574;2023-12-20T09:15:19;101688.00;;;7.77;100.00
61506;BME280;47366;51.916;4.574;2023-12-20T09:17:44;101697.81;;;7.79;100.00
61506;BME280;47366;51.916;4.574;2023-12-20T09:20:10;101674.44;;;7.80;100.00
61506;BME280;47366;51.916;4.574;2023-12-20T09:22:35;101674.44;;;7.80;100.00
61506;BME280;47366;51.916;4.574;2023-12-20T09:25:01;101685.16;;;7.81;100.00
61506;BME280;47366;51.916;4.574;2023-12-20T09:27:27;101688.59;;;7.86;100.00
61506;BME280;47366;51.916;4.574;2023-12-20T09:29:52;101684.16;;;7.84;100.00
61506;BME280;47366;51.916;4.574;2023-12-20T09:32:18;101693.78;;;7.91;100.00
61506;BME280;47366;51.916;4.574;2023-12-20T09:34:45;101682.94;;;7.93;100.00
61506;BME280;47366;51.916;4.574;2023-12-20T09:37:10;101689.28;;;7.92;100.00
61506;BME280;47366;51.916;4.574;2023-12-20T09:39:36;101682.06;;;7.92;100.00
61506;BME280;47366;51.916;4.574;2023-12-20T09:42:03;101694.53;;;7.96;100.00
61506;BME280;47366;51.916;4.574;2023-12-20T09:44:30;101690.03;;;7.95;100.00
61506;BME280;47366;51.916;4.574;2023-12-20T09:46:57;101681.94;;;7.95;100.00
61506;BME280;47366;51.916;4.574;2023-12-20T09:49:22;101678.09;;;8.02;100.00
61506;BME280;47366;51.916;4.574;2023-12-20T09:51:50;101682.56;;;8.03;100.00
61506;BME280;47366;51.916;4.574;2023-12-20T09:54:20;101695.94;;;8.06;100.00
61506;BME280;47366;51.916;4.574;2023-12-20T09:56:46;101696.91;;;8.04;100.00
61506;BME280;47366;51.916;4.574;2023-12-20T09:59:12;101702.16;;;8.08;100.00
61506;BME280;47366;51.916;4.574;2023-12-20T10:01:39;101707.22;;;8.18;100.00
61506;BME280;47366;51.916;4.574;2023-12-20T10:04:06;101692.81;;;8.17;100.00
61506;BME280;47366;51.916;4.574;2023-12-20T10:06:36;101693.63;;;8.19;100.00
61506;BME280;47366;51.916;4.574;2023-12-20T10:09:01;101689.00;;;8.23;100.00
61506;BME280;47366;51.916;4.574;2023-12-20T10:11:27;101705.94;;;8.26;100.00
61506;BME280;47366;51.916;4.574;2023-12-20T10:13:59;101691.00;;;8.18;100.00
61506;BME280;47366;51.916;4.574;2023-12-20T10:16:25;101693.41;;;8.25;100.00
61506;BME280;47366;51.916;4.574;2023-12-20T10:18:53;101697.94;;;8.25;100.00
61506;BME280;47366;51.916;4.574;2023-12-20T10:21:18;101694.22;;;8.27;100.00
61506;BME280;47366;51.916;4.574;2023-12-20T10:23:43;101698.34;;;8.38;100.00
61506;BME280;47366;51.916;4.574;2023-12-20T10:26:09;101694.81;;;8.36;100.00
61506;BME280;47366;51.916;4.574;2023-12-20T10:28:35;101688.53;;;8.35;100.00
61506;BME280;47366;51.916;4.574;2023-12-20T10:31:00;101689.41;;;8.36;100.00
61506;BME280;47366;51.916;4.574;2023-12-20T10:33:27;101684.78;;;8.39;100.00
61506;BME280;47366;51.916;4.574;2023-12-20T10:35:54;101673.22;;;8.36;100.00
61506;BME280;47366;51.916;4.574;2023-12-20T10:38:20;101674.22;;;8.33;100.00
61506;BME280;47366;51.916;4.574;2023-12-20T10:40:46;101683.97;;;8.37;100.00
61506;BME280;47366;51.916;4.574;2023-12-20T10:43:12;101685.59;;;8.41;100.00
61506;BME280;47366;51.916;4.574;2023-12-20T10:45:38;101672.28;;;8.37;100.00
61506;BME280;47366;51.916;4.574;2023-12-20T10:48:04;101664.97;;;8.40;100.00
61506;BME280;47366;51.916;4.574;2023-12-20T10:50:30;101654.94;;;8.44;100.00
61506;BME280;47366;51.916;4.574;2023-12-20T10:52:57;101666.44;;;8.49;100.00
61506;BME280;47366;51.916;4.574;2023-12-20T10:55:23;101667.31;;;8.49;100.00
61506;BME280;47366;51.916;4.574;2023-12-20T10:57:50;101662.78;;;8.50;100.00
61506;BME280;47366;51.916;4.574;2023-12-20T11:00:18;101646.84;;;8.44;100.00
61506;BME280;47366;51.916;4.574;2023-12-20T11:02:44;101651.09;;;8.49;100.00
61506;BME280;47366;51.916;4.574;2023-12-20T11:05:49;101658.97;;;8.56;100.00
61506;BME280;47366;51.916;4.574;2023-12-20T11:08:31;101655.28;;;8.58;100.00
61506;BME280;47366;51.916;4.574;2023-12-20T11:11:12;101653.06;;;8.68;100.00
61506;BME280;47366;51.916;4.574;2023-12-20T11:14:03;101647.50;;;8.73;100.00
61506;BME280;47366;51.916;4.574;2023-12-20T11:16:37;101654.63;;;8.74;100.00
61506;BME280;47366;51.916;4.574;2023-12-20T11:19:05;101644.69;;;8.74;100.00
61506;BME280;47366;51.916;4.574;2023-12-20T11:21:31;101629.69;;;8.67;100.00
61506;BME280;47366;51.916;4.574;2023-12-20T11:23:56;101642.00;;;8.74;100.00
61506;BME280;47366;51.916;4.574;2023-12-20T11:26:28;101635.78;;;8.72;100.00
61506;BME280;47366;51.916;4.574;2023-12-20T11:28:54;101630.50;;;8.69;100.00
61506;BME280;47366;51.916;4.574;2023-12-20T11:31:40;101623.28;;;8.69;100.00
61506;BME280;47366;51.916;4.574;2023-12-20T11:34:17;101622.34;;;8.70;100.00
61506;BME280;47366;51.916;4.574;2023-12-20T11:36:42;101623.97;;;8.75;100.00
61506;BME280;47366;51.916;4.574;2023-12-20T11:39:09;101606.06;;;8.72;100.00
61506;BME280;47366;51.916;4.574;2023-12-20T11:41:36;101603.06;;;8.80;100.00
61506;BME280;47366;51.916;4.574;2023-12-20T11:44:04;101601.25;;;8.80;100.00
61506;BME280;47366;51.916;4.574;2023-12-20T11:46:31;101604.44;;;8.90;100.00
61506;BME280;47366;51.916;4.574;2023-12-20T11:48:56;101608.81;;;8.92;100.00
61506;BME280;47366;51.916;4.574;2023-12-20T11:51:22;101607.06;;;8.91;100.00
61506;BME280;47366;51.916;4.574;2023-12-20T11:53:51;101612.47;;;8.91;100.00
61506;BME280;47366;51.916;4.574;2023-12-20T11:56:18;101613.41;;;8.90;100.00
61506;BME280;47366;51.916;4.574;2023-12-20T11:58:44;101605.34;;;8.89;100.00
61506;BME280;47366;51.916;4.574;2023-12-20T12:01:09;101601.78;;;8.88;100.00
61506;BME280;47366;51.916;4.574;2023-12-20T12:03:35;101611.38;;;8.96;100.00
61506;BME280;47366;51.916;4.574;2023-12-20T12:06:02;101605.97;;;8.96;100.00
61506;BME280;47366;51.916;4.574;2023-12-20T12:08:29;101615.91;;;8.95;100.00
61506;BME280;47366;51.916;4.574;2023-12-20T12:10:55;101606.94;;;8.95;100.00
61506;BME280;47366;51.916;4.574;2023-12-20T12:13:21;101602.41;;;8.95;100.00
61506;BME280;47366;51.916;4.574;2023-12-20T12:15:48;101591.66;;;8.93;100.00
61506;BME280;47366;51.916;4.574;2023-12-20T12:18:17;101602.41;;;8.95;100.00
61506;BME280;47366;51.916;4.574;2023-12-20T12:20:44;101595.38;;;8.91;100.00
61506;BME280;47366;51.916;4.574;2023-12-20T12:23:10;101591.53;;;8.97;100.00
61506;BME280;47366;51.916;4.574;2023-12-20T12:25:36;101591.53;;;8.97;100.00
61506;BME280;47366;51.916;4.574;2023-12-20T12:28:03;101568.09;;;8.97;100.00
61506;BME280;47366;51.916;4.574;2023-12-20T12:30:29;101577.84;;;9.01;100.00
61506;BME280;47366;51.916;4.574;2023-12-20T12:32:57;101583.91;;;9.06;100.00
61506;BME280;47366;51.916;4.574;2023-12-20T12:35:26;101579.44;;;9.05;100.00
61506;BME280;47366;51.916;4.574;2023-12-20T12:37:53;101567.63;;;9.08;100.00
61506;BME280;47366;51.916;4.574;2023-12-20T12:40:19;101564.13;;;9.06;100.00
61506;BME280;47366;51.916;4.574;2023-12-20T12:42:45;101570.94;;;9.14;100.00
61506;BME280;47366;51.916;4.574;2023-12-20T12:45:11;101570.94;;;9.14;100.00